sensor_id;sensor_type;location;lat;lon;timestamp;temperature;humidity
72952;HTU21D;61102;51.956;5.878;2023-02-21T00:00:33;13.26;62.92
72952;HTU21D;61102;51.956;5.878;2023-02-21T00:03:18;13.29;62.88
72952;HTU21D;61102;51.956;5.878;2023-02-21T00:06:03;13.30;62.86
72952;HTU21D;61102;51.956;5.878;2023-02-21T00:08:47;13.32;62.84
72952;HTU21D;61102;51.956;5.878;2023-02-21T00:11:32;13.29;62.84
72952;HTU21D;61102;51.956;5.878;2023-02-21T00:14:17;13.26;62.87
72952;HTU21D;61102;51.956;5.878;2023-02-21T00:17:01;13.27;62.83
72952;HTU21D;61102;51.956;5.878;2023-02-21T00:19:46;13.25;62.92
72952;HTU21D;61102;51.956;5.878;2023-02-21T00:22:30;13.25;62.98
72952;HTU21D;61102;51.956;5.878;2023-02-21T00:25:15;13.23;63.01
72952;HTU21D;61102;51.956;5.878;2023-02-21T00:28:00;13.22;63.08
72952;HTU21D;61102;51.956;5.878;2023-02-21T00:30:44;13.23;63.08
72952;HTU21D;61102;51.956;5.878;2023-02-21T00:33:29;13.25;62.98
72952;HTU21D;61102;51.956;5.878;2023-02-21T00:36:18;13.22;63.08
72952;HTU21D;61102;51.956;5.878;2023-02-21T00:39:03;13.24;63.01
72952;HTU21D;61102;51.956;5.878;2023-02-21T00:41:53;13.21;63.20
72952;HTU21D;61102;51.956;5.878;2023-02-21T00:44:38;13.20;63.01
72952;HTU21D;61102;51.956;5.878;2023-02-21T00:47:23;13.18;63.08
72952;HTU21D;61102;51.956;5.878;2023-02-21T00:50:08;13.19;63.11
72952;HTU21D;61102;51.956;5.878;2023-02-21T00:52:52;13.20;63.02
72952;HTU21D;61102;51.956;5.878;2023-02-21T00:55:37;13.18;63.11
72952;HTU21D;61102;51.956;5.878;2023-02-21T00:58:22;13.18;63.07
72952;HTU21D;61102;51.956;5.878;2023-02-21T01:01:06;13.17;63.10
72952;HTU21D;61102;51.956;5.878;2023-02-21T01:03:50;13.14;63.19
72952;HTU21D;61102;51.956;5.878;2023-02-21T01:06:35;13.12;63.22
72952;HTU21D;61102;51.956;5.878;2023-02-21T01:09:20;13.12;63.31
72952;HTU21D;61102;51.956;5.878;2023-02-21T01:12:05;13.10;63.34
72952;HTU21D;61102;51.956;5.878;2023-02-21T01:14:49;13.10;63.34
72952;HTU21D;61102;51.956;5.878;2023-02-21T01:17:34;13.15;63.30
72952;HTU21D;61102;51.956;5.878;2023-02-21T01:20:19;13.14;63.27
72952;HTU21D;61102;51.956;5.878;2023-02-21T01:23:04;13.17;63.30
72952;HTU21D;61102;51.956;5.878;2023-02-21T01:25:49;13.17;63.26
72952;HTU21D;61102;51.956;5.878;2023-02-21T01:28:33;13.15;63.18
72952;HTU21D;61102;51.956;5.878;2023-02-21T01:31:19;13.11;63.33
72952;HTU21D;61102;51.956;5.878;2023-02-21T01:34:05;13.16;63.28
72952;HTU21D;61102;51.956;5.878;2023-02-21T01:36:50;13.17;63.34
72952;HTU21D;61102;51.956;5.878;2023-02-21T01:39:35;13.17;63.34
72952;HTU21D;61102;51.956;5.878;2023-02-21T01:42:20;13.16;63.33
72952;HTU21D;61102;51.956;5.878;2023-02-21T01:48:06;13.14;63.38
72952;HTU21D;61102;51.956;5.878;2023-02-21T01:50:52;13.14;63.39
72952;HTU21D;61102;51.956;5.878;2023-02-21T01:53:38;13.16;63.34
72952;HTU21D;61102;51.956;5.878;2023-02-21T01:56:23;13.18;63.31
72952;HTU21D;61102;51.956;5.878;2023-02-21T01:59:08;13.15;63.44
72952;HTU21D;61102;51.956;5.878;2023-02-21T02:01:58;13.11;63.60
72952;HTU21D;61102;51.956;5.878;2023-02-21T02:04:46;13.12;63.44
72952;HTU21D;61102;51.956;5.878;2023-02-21T02:07:32;13.15;63.44
72952;HTU21D;61102;51.956;5.878;2023-02-21T02:10:18;13.14;63.49
72952;HTU21D;61102;51.956;5.878;2023-02-21T02:16:45;13.21;63.50
72952;HTU21D;61102;51.956;5.878;2023-02-21T02:25:13;13.17;63.69
72952;HTU21D;61102;51.956;5.878;2023-02-21T02:27:50;13.11;63.78
72952;HTU21D;61102;51.956;5.878;2023-02-21T02:33:18;13.17;63.55
72952;HTU21D;61102;51.956;5.878;2023-02-21T02:36:35;13.16;63.74
72952;HTU21D;61102;51.956;5.878;2023-02-21T02:44:41;13.19;63.50
72952;HTU21D;61102;51.956;5.878;2023-02-21T02:47:21;13.21;63.70
72952;HTU21D;61102;51.956;5.878;2023-02-21T02:49:50;13.18;63.66
72952;HTU21D;61102;51.956;5.878;2023-02-21T02:52:16;13.16;63.64
72952;HTU21D;61102;51.956;5.878;2023-02-21T02:54:43;13.17;63.72
72952;HTU21D;61102;51.956;5.878;2023-02-21T02:57:10;13.12;63.85
72952;HTU21D;61102;51.956;5.878;2023-02-21T02:59:41;13.14;63.92
72952;HTU21D;61102;51.956;5.878;2023-02-21T03:05:17;13.15;63.95
72952;HTU21D;61102;51.956;5.878;2023-02-21T03:08:02;13.15;63.92
72952;HTU21D;61102;51.956;5.878;2023-02-21T03:16:18;13.07;63.95
72952;HTU21D;61102;51.956;5.878;2023-02-21T03:18:58;13.06;64.13
72952;HTU21D;61102;51.956;5.878;2023-02-21T03:21:46;13.09;64.09
72952;HTU21D;61102;51.956;5.878;2023-02-21T03:24:15;13.03;64.01
72952;HTU21D;61102;51.956;5.878;2023-02-21T03:26:45;13.01;64.14
72952;HTU21D;61102;51.956;5.878;2023-02-21T03:29:33;13.07;63.96
72952;HTU21D;61102;51.956;5.878;2023-02-21T03:32:06;13.07;64.18
72952;HTU21D;61102;51.956;5.878;2023-02-21T03:34:40;13.09;64.11
72952;HTU21D;61102;51.956;5.878;2023-02-21T03:37:18;13.12;64.18
72952;HTU21D;61102;51.956;5.878;2023-02-21T03:39:45;13.14;63.89
72952;HTU21D;61102;51.956;5.878;2023-02-21T03:42:11;13.15;63.93
72952;HTU21D;61102;51.956;5.878;2023-02-21T03:44:39;13.14;63.85
72952;HTU21D;61102;51.956;5.878;2023-02-21T03:47:05;13.10;63.95
72952;HTU21D;61102;51.956;5.878;2023-02-21T03:49:31;13.10;63.99
72952;HTU21D;61102;51.956;5.878;2023-02-21T03:51:58;13.11;64.02
72952;HTU21D;61102;51.956;5.878;2023-02-21T03:54:24;13.10;64.00
72952;HTU21D;61102;51.956;5.878;2023-02-21T03:56:57;13.12;64.01
72952;HTU21D;61102;51.956;5.878;2023-02-21T03:59:24;13.14;63.98
72952;HTU21D;61102;51.956;5.878;2023-02-21T04:01:51;13.15;63.98
72952;HTU21D;61102;51.956;5.878;2023-02-21T04:04:18;13.18;63.98
72952;HTU21D;61102;51.956;5.878;2023-02-21T04:06:49;13.21;63.89
72952;HTU21D;61102;51.956;5.878;2023-02-21T04:09:15;13.24;63.78
72952;HTU21D;61102;51.956;5.878;2023-02-21T04:11:43;13.18;63.93
72952;HTU21D;61102;51.956;5.878;2023-02-21T04:14:09;13.18;63.90
72952;HTU21D;61102;51.956;5.878;2023-02-21T04:16:36;13.18;63.98
72952;HTU21D;61102;51.956;5.878;2023-02-21T04:19:02;13.18;64.01
72952;HTU21D;61102;51.956;5.878;2023-02-21T04:21:29;13.17;64.03
72952;HTU21D;61102;51.956;5.878;2023-02-21T04:23:58;13.18;64.02
72952;HTU21D;61102;51.956;5.878;2023-02-21T04:26:28;13.17;64.06
72952;HTU21D;61102;51.956;5.878;2023-02-21T04:28:55;13.14;64.14
72952;HTU21D;61102;51.956;5.878;2023-02-21T04:31:22;13.10;64.20
72952;HTU21D;61102;51.956;5.878;2023-02-21T04:33:50;13.11;64.15
72952;HTU21D;61102;51.956;5.878;2023-02-21T04:36:21;13.12;64.06
72952;HTU21D;61102;51.956;5.878;2023-02-21T04:38:49;13.15;64.08
72952;HTU21D;61102;51.956;5.878;2023-02-21T04:41:16;13.14;64.14
72952;HTU21D;61102;51.956;5.878;2023-02-21T04:43:43;13.15;64.06
72952;HTU21D;61102;51.956;5.878;2023-02-21T04:46:14;13.11;64.34
72952;HTU21D;61102;51.956;5.878;2023-02-21T04:48:48;13.12;64.35
72952;HTU21D;61102;51.956;5.878;2023-02-21T04:51:17;13.09;64.22
72952;HTU21D;61102;51.956;5.878;2023-02-21T04:53:46;13.05;64.30
72952;HTU21D;61102;51.956;5.878;2023-02-21T04:56:13;13.06;64.14
72952;HTU21D;61102;51.956;5.878;2023-02-21T04:58:40;13.02;64.27
72952;HTU21D;61102;51.956;5.878;2023-02-21T05:01:06;13.06;64.12
72952;HTU21D;61102;51.956;5.878;2023-02-21T05:03:33;13.09;64.10
72952;HTU21D;61102;51.956;5.878;2023-02-21T05:05:59;13.10;64.07
72952;HTU21D;61102;51.956;5.878;2023-02-21T05:08:25;13.12;64.03
72952;HTU21D;61102;51.956;5.878;2023-02-21T05:10:51;13.14;63.92
72952;HTU21D;61102;51.956;5.878;2023-02-21T05:13:20;13.10;64.06
72952;HTU21D;61102;51.956;5.878;2023-02-21T05:15:48;13.09;64.15
72952;HTU21D;61102;51.956;5.878;2023-02-21T05:18:14;13.09;64.14
72952;HTU21D;61102;51.956;5.878;2023-02-21T05:20:48;13.10;64.18
72952;HTU21D;61102;51.956;5.878;2023-02-21T05:23:16;13.12;64.14
72952;HTU21D;61102;51.956;5.878;2023-02-21T05:25:44;13.15;64.05
72952;HTU21D;61102;51.956;5.878;2023-02-21T05:28:10;13.14;64.04
72952;HTU21D;61102;51.956;5.878;2023-02-21T05:30:36;13.11;64.03
72952;HTU21D;61102;51.956;5.878;2023-02-21T05:33:02;13.10;64.13
72952;HTU21D;61102;51.956;5.878;2023-02-21T05:35:28;13.11;64.12
72952;HTU21D;61102;51.956;5.878;2023-02-21T05:37:54;13.10;64.14
72952;HTU21D;61102;51.956;5.878;2023-02-21T05:40:20;13.10;64.19
72952;HTU21D;61102;51.956;5.878;2023-02-21T05:42:47;13.14;64.18
72952;HTU21D;61102;51.956;5.878;2023-02-21T05:45:14;13.14;64.17
72952;HTU21D;61102;51.956;5.878;2023-02-21T05:47:40;13.14;64.16
72952;HTU21D;61102;51.956;5.878;2023-02-21T05:50:12;13.17;64.36
72952;HTU21D;61102;51.956;5.878;2023-02-21T05:52:38;13.16;64.09
72952;HTU21D;61102;51.956;5.878;2023-02-21T05:55:05;13.16;64.08
72952;HTU21D;61102;51.956;5.878;2023-02-21T05:57:36;13.19;64.24
72952;HTU21D;61102;51.956;5.878;2023-02-21T06:00:03;13.22;63.99
72952;HTU21D;61102;51.956;5.878;2023-02-21T06:02:37;13.21;63.94
72952;HTU21D;61102;51.956;5.878;2023-02-21T06:05:04;13.20;63.95
72952;HTU21D;61102;51.956;5.878;2023-02-21T06:07:30;13.18;63.98
72952;HTU21D;61102;51.956;5.878;2023-02-21T06:09:56;13.14;64.08
72952;HTU21D;61102;51.956;5.878;2023-02-21T06:12:22;13.15;64.11
72952;HTU21D;61102;51.956;5.878;2023-02-21T06:14:48;13.15;64.12
72952;HTU21D;61102;51.956;5.878;2023-02-21T06:17:14;13.15;64.15
72952;HTU21D;61102;51.956;5.878;2023-02-21T06:19:40;13.12;64.15
72952;HTU21D;61102;51.956;5.878;2023-02-21T06:22:06;13.15;64.18
72952;HTU21D;61102;51.956;5.878;2023-02-21T06:24:33;13.15;64.15
72952;HTU21D;61102;51.956;5.878;2023-02-21T06:26:59;13.15;64.14
72952;HTU21D;61102;51.956;5.878;2023-02-21T06:29:25;13.14;64.24
72952;HTU21D;61102;51.956;5.878;2023-02-21T06:31:58;13.11;64.44
72952;HTU21D;61102;51.956;5.878;2023-02-21T06:34:27;13.14;64.30
72952;HTU21D;61102;51.956;5.878;2023-02-21T06:36:54;13.12;64.25
72952;HTU21D;61102;51.956;5.878;2023-02-21T06:39:21;13.14;64.18
72952;HTU21D;61102;51.956;5.878;2023-02-21T06:41:51;13.12;64.36
72952;HTU21D;61102;51.956;5.878;2023-02-21T06:44:18;13.10;64.25
72952;HTU21D;61102;51.956;5.878;2023-02-21T06:46:44;13.09;64.29
72952;HTU21D;61102;51.956;5.878;2023-02-21T06:49:15;13.07;64.29
72952;HTU21D;61102;51.956;5.878;2023-02-21T06:51:42;13.09;64.31
72952;HTU21D;61102;51.956;5.878;2023-02-21T06:54:08;13.08;64.29
72952;HTU21D;61102;51.956;5.878;2023-02-21T06:56:34;13.06;64.34
72952;HTU21D;61102;51.956;5.878;2023-02-21T06:59:01;13.07;64.35
72952;HTU21D;61102;51.956;5.878;2023-02-21T07:01:29;13.06;64.42
72952;HTU21D;61102;51.956;5.878;2023-02-21T07:03:56;13.10;64.31
72952;HTU21D;61102;51.956;5.878;2023-02-21T07:06:23;13.11;64.29
72952;HTU21D;61102;51.956;5.878;2023-02-21T07:08:49;13.14;64.24
72952;HTU21D;61102;51.956;5.878;2023-02-21T07:11:16;13.11;64.32
72952;HTU21D;61102;51.956;5.878;2023-02-21T07:13:50;13.14;64.50
72952;HTU21D;61102;51.956;5.878;2023-02-21T07:16:17;13.14;64.30
72952;HTU21D;61102;51.956;5.878;2023-02-21T07:18:44;13.12;64.41
72952;HTU21D;61102;51.956;5.878;2023-02-21T07:21:11;13.12;64.40
72952;HTU21D;61102;51.956;5.878;2023-02-21T07:23:38;13.15;64.34
72952;HTU21D;61102;51.956;5.878;2023-02-21T07:26:04;13.14;64.34
72952;HTU21D;61102;51.956;5.878;2023-02-21T07:28:30;13.14;64.34
72952;HTU21D;61102;51.956;5.878;2023-02-21T07:30:56;13.11;64.35
72952;HTU21D;61102;51.956;5.878;2023-02-21T07:33:22;13.09;64.38
72952;HTU21D;61102;51.956;5.878;2023-02-21T07:35:48;13.15;64.34
72952;HTU21D;61102;51.956;5.878;2023-02-21T07:38:26;13.15;64.50
72952;HTU21D;61102;51.956;5.878;2023-02-21T07:40:57;13.10;64.60
72952;HTU21D;61102;51.956;5.878;2023-02-21T07:43:24;13.06;64.43
72952;HTU21D;61102;51.956;5.878;2023-02-21T07:45:51;13.05;64.48
72952;HTU21D;61102;51.956;5.878;2023-02-21T07:48:17;13.06;64.47
72952;HTU21D;61102;51.956;5.878;2023-02-21T07:50:44;13.03;64.61
72952;HTU21D;61102;51.956;5.878;2023-02-21T07:53:12;13.04;64.66
72952;HTU21D;61102;51.956;5.878;2023-02-21T07:55:38;13.07;64.59
72952;HTU21D;61102;51.956;5.878;2023-02-21T07:58:05;13.09;64.57
72952;HTU21D;61102;51.956;5.878;2023-02-21T08:00:31;13.09;64.56
72952;HTU21D;61102;51.956;5.878;2023-02-21T08:02:58;13.07;64.64
72952;HTU21D;61102;51.956;5.878;2023-02-21T08:05:24;13.09;64.67
72952;HTU21D;61102;51.956;5.878;2023-02-21T08:07:51;13.09;64.68
72952;HTU21D;61102;51.956;5.878;2023-02-21T08:10:23;13.10;64.82
72952;HTU21D;61102;51.956;5.878;2023-02-21T08:12:49;13.10;64.67
72952;HTU21D;61102;51.956;5.878;2023-02-21T08:15:16;13.09;64.71
72952;HTU21D;61102;51.956;5.878;2023-02-21T08:17:43;13.09;64.77
72952;HTU21D;61102;51.956;5.878;2023-02-21T08:20:09;13.08;64.82
72952;HTU21D;61102;51.956;5.878;2023-02-21T08:22:36;13.09;64.85
72952;HTU21D;61102;51.956;5.878;2023-02-21T08:25:02;13.11;64.79
72952;HTU21D;61102;51.956;5.878;2023-02-21T08:27:28;13.15;64.75
72952;HTU21D;61102;51.956;5.878;2023-02-21T08:29:54;13.15;64.69
72952;HTU21D;61102;51.956;5.878;2023-02-21T08:32:21;13.14;64.67
72952;HTU21D;61102;51.956;5.878;2023-02-21T08:34:50;13.14;64.88
72952;HTU21D;61102;51.956;5.878;2023-02-21T08:37:16;13.14;64.68
72952;HTU21D;61102;51.956;5.878;2023-02-21T08:39:49;13.11;64.86
72952;HTU21D;61102;51.956;5.878;2023-02-21T08:42:18;13.10;64.77
72952;HTU21D;61102;51.956;5.878;2023-02-21T08:44:45;13.14;64.79
72952;HTU21D;61102;51.956;5.878;2023-02-21T08:47:13;13.12;64.83
72952;HTU21D;61102;51.956;5.878;2023-02-21T08:49:44;13.16;64.97
72952;HTU21D;61102;51.956;5.878;2023-02-21T08:52:13;13.17;64.92
72952;HTU21D;61102;51.956;5.878;2023-02-21T08:54:42;13.21;64.87
72952;HTU21D;61102;51.956;5.878;2023-02-21T08:57:09;13.22;64.82
72952;HTU21D;61102;51.956;5.878;2023-02-21T08:59:39;13.20;64.95
72952;HTU21D;61102;51.956;5.878;2023-02-21T09:02:20;13.22;64.97
72952;HTU21D;61102;51.956;5.878;2023-02-21T09:04:47;13.19;64.77
72952;HTU21D;61102;51.956;5.878;2023-02-21T09:07:15;13.17;64.99
72952;HTU21D;61102;51.956;5.878;2023-02-21T09:09:42;13.23;64.91
72952;HTU21D;61102;51.956;5.878;2023-02-21T09:12:08;13.25;64.91
72952;HTU21D;61102;51.956;5.878;2023-02-21T09:14:35;13.26;64.90
72952;HTU21D;61102;51.956;5.878;2023-02-21T09:17:03;13.29;64.87
72952;HTU21D;61102;51.956;5.878;2023-02-21T09:19:29;13.30;64.82
72952;HTU21D;61102;51.956;5.878;2023-02-21T09:21:55;13.30;64.88
72952;HTU21D;61102;51.956;5.878;2023-02-21T09:24:26;13.32;65.10
72952;HTU21D;61102;51.956;5.878;2023-02-21T09:26:54;13.32;64.92
72952;HTU21D;61102;51.956;5.878;2023-02-21T09:29:26;13.32;65.07
72952;HTU21D;61102;51.956;5.878;2023-02-21T09:31:53;13.35;64.98
72952;HTU21D;61102;51.956;5.878;2023-02-21T09:34:19;13.35;64.95
72952;HTU21D;61102;51.956;5.878;2023-02-21T09:36:47;13.35;65.01
72952;HTU21D;61102;51.956;5.878;2023-02-21T09:39:16;13.38;65.01
72952;HTU21D;61102;51.956;5.878;2023-02-21T09:41:43;13.37;65.04
72952;HTU21D;61102;51.956;5.878;2023-02-21T09:44:17;13.44;65.24
72952;HTU21D;61102;51.956;5.878;2023-02-21T09:46:49;13.49;65.01
72952;HTU21D;61102;51.956;5.878;2023-02-21T09:51:51;13.63;64.78
72952;HTU21D;61102;51.956;5.878;2023-02-21T09:54:31;13.61;64.95
72952;HTU21D;61102;51.956;5.878;2023-02-21T09:57:00;13.56;64.95
72952;HTU21D;61102;51.956;5.878;2023-02-21T09:59:27;13.58;64.79
72952;HTU21D;61102;51.956;5.878;2023-02-21T10:07:25;13.66;64.64
72952;HTU21D;61102;51.956;5.878;2023-02-21T10:10:04;13.64;64.80
72952;HTU21D;61102;51.956;5.878;2023-02-21T10:12:41;13.65;64.76
72952;HTU21D;61102;51.956;5.878;2023-02-21T10:21:20;13.71;64.50
72952;HTU21D;61102;51.956;5.878;2023-02-21T10:23:50;13.70;64.40
72952;HTU21D;61102;51.956;5.878;2023-02-21T10:26:37;13.82;64.37
72952;HTU21D;61102;51.956;5.878;2023-02-21T10:29:26;13.86;64.27
72952;HTU21D;61102;51.956;5.878;2023-02-21T10:31:59;13.82;64.10
72952;HTU21D;61102;51.956;5.878;2023-02-21T10:34:29;13.82;64.16
72952;HTU21D;61102;51.956;5.878;2023-02-21T10:36:58;13.82;64.17
72952;HTU21D;61102;51.956;5.878;2023-02-21T10:39:34;13.82;64.33
72952;HTU21D;61102;51.956;5.878;2023-02-21T10:42:02;13.82;64.24
72952;HTU21D;61102;51.956;5.878;2023-02-21T10:44:29;13.84;64.26
72952;HTU21D;61102;51.956;5.878;2023-02-21T10:49:33;13.79;64.43
72952;HTU21D;61102;51.956;5.878;2023-02-21T10:52:09;13.78;64.40
72952;HTU21D;61102;51.956;5.878;2023-02-21T10:54:36;13.80;64.32
72952;HTU21D;61102;51.956;5.878;2023-02-21T10:57:05;13.78;64.40
72952;HTU21D;61102;51.956;5.878;2023-02-21T10:59:35;13.79;64.43
72952;HTU21D;61102;51.956;5.878;2023-02-21T11:02:17;13.83;64.34
72952;HTU21D;61102;51.956;5.878;2023-02-21T11:04:47;13.93;64.05
72952;HTU21D;61102;51.956;5.878;2023-02-21T11:07:13;13.91;64.03
72952;HTU21D;61102;51.956;5.878;2023-02-21T11:09:44;13.90;64.08
72952;HTU21D;61102;51.956;5.878;2023-02-21T11:12:27;13.96;64.21
72952;HTU21D;61102;51.956;5.878;2023-02-21T11:15:10;13.95;64.20
72952;HTU21D;61102;51.956;5.878;2023-02-21T11:17:42;13.92;64.05
72952;HTU21D;61102;51.956;5.878;2023-02-21T11:22:41;13.86;64.26
72952;HTU21D;61102;51.956;5.878;2023-02-21T11:27:37;13.93;64.11
72952;HTU21D;61102;51.956;5.878;2023-02-21T11:30:15;13.99;64.25
72952;HTU21D;61102;51.956;5.878;2023-02-21T11:32:48;13.99;64.13
72952;HTU21D;61102;51.956;5.878;2023-02-21T11:38:05;14.10;63.98
72952;HTU21D;61102;51.956;5.878;2023-02-21T11:40:44;14.12;63.92
72952;HTU21D;61102;51.956;5.878;2023-02-21T11:43:31;14.22;63.86
72952;HTU21D;61102;51.956;5.878;2023-02-21T11:54:42;14.11;63.69
72952;HTU21D;61102;51.956;5.878;2023-02-21T12:08:44;13.70;64.72
72952;HTU21D;61102;51.956;5.878;2023-02-21T12:19:45;13.56;65.11
72952;HTU21D;61102;51.956;5.878;2023-02-21T12:23:08;13.61;65.01
72952;HTU21D;61102;51.956;5.878;2023-02-21T12:29:28;13.60;64.92
72952;HTU21D;61102;51.956;5.878;2023-02-21T12:32:17;13.53;65.04
72952;HTU21D;61102;51.956;5.878;2023-02-21T12:38:04;13.41;65.17
72952;HTU21D;61102;51.956;5.878;2023-02-21T12:47:00;13.44;65.23
72952;HTU21D;61102;51.956;5.878;2023-02-21T12:54:54;13.49;65.30
72952;HTU21D;61102;51.956;5.878;2023-02-21T12:57:35;13.51;65.33
72952;HTU21D;61102;51.956;5.878;2023-02-21T13:00:15;13.56;65.25
72952;HTU21D;61102;51.956;5.878;2023-02-21T13:05:48;13.61;65.13
72952;HTU21D;61102;51.956;5.878;2023-02-21T13:08:26;13.61;65.24
72952;HTU21D;61102;51.956;5.878;2023-02-21T13:11:15;13.63;65.24
72952;HTU21D;61102;51.956;5.878;2023-02-21T13:13:43;13.66;64.94
72952;HTU21D;61102;51.956;5.878;2023-02-21T13:16:11;13.68;64.97
72952;HTU21D;61102;51.956;5.878;2023-02-21T13:18:43;13.76;64.92
72952;HTU21D;61102;51.956;5.878;2023-02-21T13:29:50;13.93;64.34
72952;HTU21D;61102;51.956;5.878;2023-02-21T13:32:18;13.81;64.67
72952;HTU21D;61102;51.956;5.878;2023-02-21T13:34:53;13.81;64.90
72952;HTU21D;61102;51.956;5.878;2023-02-21T13:37:23;13.78;64.83
72952;HTU21D;61102;51.956;5.878;2023-02-21T13:39:52;13.77;64.79
72952;HTU21D;61102;51.956;5.878;2023-02-21T13:42:21;13.75;64.86
72952;HTU21D;61102;51.956;5.878;2023-02-21T13:44:50;13.70;64.92
72952;HTU21D;61102;51.956;5.878;2023-02-21T13:47:22;13.65;64.98
72952;HTU21D;61102;51.956;5.878;2023-02-21T13:49:57;13.67;65.19
72952;HTU21D;61102;51.956;5.878;2023-02-21T13:52:33;13.69;65.02
72952;HTU21D;61102;51.956;5.878;2023-02-21T13:57:46;13.81;64.62
72952;HTU21D;61102;51.956;5.878;2023-02-21T14:05:22;13.83;64.58
72952;HTU21D;61102;51.956;5.878;2023-02-21T14:08:07;13.93;64.53
72952;HTU21D;61102;51.956;5.878;2023-02-21T14:10:40;13.90;64.35
72952;HTU21D;61102;51.956;5.878;2023-02-21T14:13:30;13.97;64.37
72952;HTU21D;61102;51.956;5.878;2023-02-21T14:21:28;14.22;63.52
72952;HTU21D;61102;51.956;5.878;2023-02-21T14:24:05;14.18;63.79
72952;HTU21D;61102;51.956;5.878;2023-02-21T14:37:37;14.29;63.82
72952;HTU21D;61102;51.956;5.878;2023-02-21T14:43:19;14.32;63.68
72952;HTU21D;61102;51.956;5.878;2023-02-21T14:57:37;14.40;63.69
72952;HTU21D;61102;51.956;5.878;2023-02-21T15:00:22;14.40;63.66
72952;HTU21D;61102;51.956;5.878;2023-02-21T15:03:09;14.43;63.66
72952;HTU21D;61102;51.956;5.878;2023-02-21T15:08:22;14.47;63.51
72952;HTU21D;61102;51.956;5.878;2023-02-21T15:10:55;14.47;63.45
72952;HTU21D;61102;51.956;5.878;2023-02-21T15:13:30;14.48;63.53
72952;HTU21D;61102;51.956;5.878;2023-02-21T15:16:06;14.51;63.63
72952;HTU21D;61102;51.956;5.878;2023-02-21T15:18:38;14.48;63.60
72952;HTU21D;61102;51.956;5.878;2023-02-21T15:23:30;14.50;63.32
72952;HTU21D;61102;51.956;5.878;2023-02-21T15:25:59;14.50;63.36
72952;HTU21D;61102;51.956;5.878;2023-02-21T15:28:30;14.53;63.33
72952;HTU21D;61102;51.956;5.878;2023-02-21T15:31:06;14.54;63.37
72952;HTU21D;61102;51.956;5.878;2023-02-21T15:33:40;14.49;63.34
72952;HTU21D;61102;51.956;5.878;2023-02-21T15:38:50;14.44;63.15
72952;HTU21D;61102;51.956;5.878;2023-02-21T15:41:27;14.42;63.28
72952;HTU21D;61102;51.956;5.878;2023-02-21T15:43:58;14.45;63.19
72952;HTU21D;61102;51.956;5.878;2023-02-21T15:46:31;14.44;63.21
72952;HTU21D;61102;51.956;5.878;2023-02-21T15:49:02;14.43;63.09
72952;HTU21D;61102;51.956;5.878;2023-02-21T15:51:29;14.42;62.89
72952;HTU21D;61102;51.956;5.878;2023-02-21T15:57:21;14.36;63.13
72952;HTU21D;61102;51.956;5.878;2023-02-21T15:59:45;14.34;62.80
72952;HTU21D;61102;51.956;5.878;2023-02-21T16:04:43;14.24;63.09
72952;HTU21D;61102;51.956;5.878;2023-02-21T16:09:49;14.21;63.00
72952;HTU21D;61102;51.956;5.878;2023-02-21T16:12:25;14.20;62.87
72952;HTU21D;61102;51.956;5.878;2023-02-21T16:15:04;14.19;62.98
72952;HTU21D;61102;51.956;5.878;2023-02-21T16:17:36;14.19;63.03
72952;HTU21D;61102;51.956;5.878;2023-02-21T16:20:22;14.22;63.08
72952;HTU21D;61102;51.956;5.878;2023-02-21T16:23:32;14.23;63.03
72952;HTU21D;61102;51.956;5.878;2023-02-21T16:28:35;14.12;62.88
72952;HTU21D;61102;51.956;5.878;2023-02-21T16:31:02;14.56;61.68
72952;HTU21D;61102;51.956;5.878;2023-02-21T16:33:29;14.24;62.34
72952;HTU21D;61102;51.956;5.878;2023-02-21T16:35:56;14.14;62.62
72952;HTU21D;61102;51.956;5.878;2023-02-21T16:38:24;14.10;62.79
72952;HTU21D;61102;51.956;5.878;2023-02-21T16:40:51;14.06;62.70
72952;HTU21D;61102;51.956;5.878;2023-02-21T16:43:24;14.06;62.91
72952;HTU21D;61102;51.956;5.878;2023-02-21T16:49:19;14.03;62.57
72952;HTU21D;61102;51.956;5.878;2023-02-21T16:51:46;13.98;62.69
72952;HTU21D;61102;51.956;5.878;2023-02-21T16:54:13;13.98;62.67
72952;HTU21D;61102;51.956;5.878;2023-02-21T16:56:41;13.93;62.82
72952;HTU21D;61102;51.956;5.878;2023-02-21T16:59:10;13.93;62.83
72952;HTU21D;61102;51.956;5.878;2023-02-21T17:01:36;13.93;62.67
72952;HTU21D;61102;51.956;5.878;2023-02-21T17:04:03;13.90;62.71
72952;HTU21D;61102;51.956;5.878;2023-02-21T17:06:33;13.85;62.85
72952;HTU21D;61102;51.956;5.878;2023-02-21T17:08:59;13.86;62.73
72952;HTU21D;61102;51.956;5.878;2023-02-21T17:11:25;13.83;62.79
72952;HTU21D;61102;51.956;5.878;2023-02-21T17:13:51;13.84;62.76
72952;HTU21D;61102;51.956;5.878;2023-02-21T17:16:18;13.85;62.70
72952;HTU21D;61102;51.956;5.878;2023-02-21T17:18:44;13.86;62.66
72952;HTU21D;61102;51.956;5.878;2023-02-21T17:21:10;13.85;62.66
72952;HTU21D;61102;51.956;5.878;2023-02-21T17:23:37;13.86;62.66
72952;HTU21D;61102;51.956;5.878;2023-02-21T17:26:06;0.00;62.55
72952;HTU21D;61102;51.956;5.878;2023-02-21T17:28:32;13.90;62.52
72952;HTU21D;61102;51.956;5.878;2023-02-21T17:30:59;13.91;62.51
72952;HTU21D;61102;51.956;5.878;2023-02-21T17:33:25;13.90;62.59
72952;HTU21D;61102;51.956;5.878;2023-02-21T17:35:52;13.86;62.71
72952;HTU21D;61102;51.956;5.878;2023-02-21T17:38:18;13.85;62.75
72952;HTU21D;61102;51.956;5.878;2023-02-21T17:40:44;13.80;62.89
72952;HTU21D;61102;51.956;5.878;2023-02-21T17:43:11;13.74;62.97
72952;HTU21D;61102;51.956;5.878;2023-02-21T17:45:37;13.62;63.18
72952;HTU21D;61102;51.956;5.878;2023-02-21T17:48:03;13.56;63.34
72952;HTU21D;61102;51.956;5.878;2023-02-21T17:50:31;13.51;63.40
72952;HTU21D;61102;51.956;5.878;2023-02-21T17:52:57;13.49;63.44
72952;HTU21D;61102;51.956;5.878;2023-02-21T17:55:25;13.44;63.58
72952;HTU21D;61102;51.956;5.878;2023-02-21T17:57:51;13.45;63.47
72952;HTU21D;61102;51.956;5.878;2023-02-21T18:00:21;13.43;63.59
72952;HTU21D;61102;51.956;5.878;2023-02-21T18:02:50;13.44;63.43
72952;HTU21D;61102;51.956;5.878;2023-02-21T18:05:17;13.47;63.31
72952;HTU21D;61102;51.956;5.878;2023-02-21T18:07:49;13.50;63.40
72952;HTU21D;61102;51.956;5.878;2023-02-21T18:10:17;13.49;63.18
72952;HTU21D;61102;51.956;5.878;2023-02-21T18:12:43;13.55;62.99
72952;HTU21D;61102;51.956;5.878;2023-02-21T18:15:10;13.56;62.94
72952;HTU21D;61102;51.956;5.878;2023-02-21T18:17:37;13.55;62.91
72952;HTU21D;61102;51.956;5.878;2023-02-21T18:20:03;13.53;62.89
72952;HTU21D;61102;51.956;5.878;2023-02-21T18:22:30;13.53;62.86
72952;HTU21D;61102;51.956;5.878;2023-02-21T18:24:56;13.54;62.79
72952;HTU21D;61102;51.956;5.878;2023-02-21T18:27:22;13.54;62.80
72952;HTU21D;61102;51.956;5.878;2023-02-21T18:29:48;13.56;62.79
72952;HTU21D;61102;51.956;5.878;2023-02-21T18:32:19;13.53;62.82
72952;HTU21D;61102;51.956;5.878;2023-02-21T18:34:45;13.51;62.90
72952;HTU21D;61102;51.956;5.878;2023-02-21T18:37:11;13.48;63.02
72952;HTU21D;61102;51.956;5.878;2023-02-21T18:39:37;13.44;63.11